sensor_id;sensor_type;location;lat;lon;timestamp;P1;durP1;ratioP1;P2;durP2;ratioP2
11596;SDS011;5854;48.072;16.286;2023-05-10T00:02:03;9.95;;;2.83;;
11596;SDS011;5854;48.072;16.286;2023-05-10T00:04:31;3.83;;;2.47;;
11596;SDS011;5854;48.072;16.286;2023-05-10T00:06:58;2.45;;;2.22;;
11596;SDS011;5854;48.072;16.286;2023-05-10T00:09:25;4.00;;;2.72;;
11596;SDS011;5854;48.072;16.286;2023-05-10T00:11:52;4.47;;;2.10;;
11596;SDS011;5854;48.072;16.286;2023-05-10T00:14:19;3.05;;;2.50;;
11596;SDS011;5854;48.072;16.286;2023-05-10T00:16:46;2.58;;;2.38;;
11596;SDS011;5854;48.072;16.286;2023-05-10T00:19:13;2.30;;;2.10;;
11596;SDS011;5854;48.072;16.286;2023-05-10T00:21:42;3.05;;;2.85;;
11596;SDS011;5854;48.072;16.286;2023-05-10T00:24:09;3.15;;;2.33;;
11596;SDS011;5854;48.072;16.286;2023-05-10T00:26:36;2.63;;;2.42;;
11596;SDS011;5854;48.072;16.286;2023-05-10T00:29:03;6.78;;;3.17;;
11596;SDS011;5854;48.072;16.286;2023-05-10T00:31:30;3.50;;;2.72;;
11596;SDS011;5854;48.072;16.286;2023-05-10T00:33:57;2.38;;;2.28;;
11596;SDS011;5854;48.072;16.286;2023-05-10T00:36:24;3.97;;;2.58;;
11596;SDS011;5854;48.072;16.286;2023-05-10T00:38:54;3.22;;;2.55;;
11596;SDS011;5854;48.072;16.286;2023-05-10T00:41:21;3.20;;;2.83;;
11596;SDS011;5854;48.072;16.286;2023-05-10T00:43:48;3.75;;;2.22;;
11596;SDS011;5854;48.072;16.286;2023-05-10T00:46:15;2.40;;;2.20;;
11596;SDS011;5854;48.072;16.286;2023-05-10T00:48:43;2.55;;;2.15;;
11596;SDS011;5854;48.072;16.286;2023-05-10T00:51:11;3.75;;;2.47;;
11596;SDS011;5854;48.072;16.286;2023-05-10T00:53:38;5.07;;;2.38;;
11596;SDS011;5854;48.072;16.286;2023-05-10T00:56:08;2.85;;;2.53;;
11596;SDS011;5854;48.072;16.286;2023-05-10T00:58:35;2.53;;;2.42;;
11596;SDS011;5854;48.072;16.286;2023-05-10T01:01:03;3.00;;;2.80;;
11596;SDS011;5854;48.072;16.286;2023-05-10T01:03:32;4.35;;;2.28;;
11596;SDS011;5854;48.072;16.286;2023-05-10T01:05:59;2.60;;;2.40;;
11596;SDS011;5854;48.072;16.286;2023-05-10T01:08:26;3.38;;;2.38;;
11596;SDS011;5854;48.072;16.286;2023-05-10T01:10:54;3.97;;;2.80;;
11596;SDS011;5854;48.072;16.286;2023-05-10T01:13:27;3.80;;;2.55;;
11596;SDS011;5854;48.072;16.286;2023-05-10T01:15:59;3.75;;;2.40;;
11596;SDS011;5854;48.072;16.286;2023-05-10T01:18:28;3.17;;;2.40;;
11596;SDS011;5854;48.072;16.286;2023-05-10T01:21:01;2.83;;;2.60;;
11596;SDS011;5854;48.072;16.286;2023-05-10T01:23:57;2.80;;;2.60;;
11596;SDS011;5854;48.072;16.286;2023-05-10T01:33:40;4.38;;;2.53;;
11596;SDS011;5854;48.072;16.286;2023-05-10T01:36:15;2.25;;;2.05;;
11596;SDS011;5854;48.072;16.286;2023-05-10T01:38:53;2.38;;;2.17;;
11596;SDS011;5854;48.072;16.286;2023-05-10T01:41:28;3.22;;;2.67;;
11596;SDS011;5854;48.072;16.286;2023-05-10T01:44:09;4.13;;;3.08;;
11596;SDS011;5854;48.072;16.286;2023-05-10T01:46:43;2.53;;;2.33;;
11596;SDS011;5854;48.072;16.286;2023-05-10T01:49:18;3.38;;;2.58;;
11596;SDS011;5854;48.072;16.286;2023-05-10T01:51:51;2.65;;;2.45;;
11596;SDS011;5854;48.072;16.286;2023-05-10T01:54:22;2.50;;;2.30;;
11596;SDS011;5854;48.072;16.286;2023-05-10T01:56:52;2.95;;;2.47;;
11596;SDS011;5854;48.072;16.286;2023-05-10T01:59:27;2.45;;;2.25;;
11596;SDS011;5854;48.072;16.286;2023-05-10T02:02:01;2.40;;;1.92;;
11596;SDS011;5854;48.072;16.286;2023-05-10T02:04:32;2.38;;;2.17;;
11596;SDS011;5854;48.072;16.286;2023-05-10T02:07:04;3.83;;;2.25;;
11596;SDS011;5854;48.072;16.286;2023-05-10T02:09:32;3.30;;;2.72;;
11596;SDS011;5854;48.072;16.286;2023-05-10T02:12:01;2.65;;;2.40;;
11596;SDS011;5854;48.072;16.286;2023-05-10T02:14:32;2.57;;;2.37;;
11596;SDS011;5854;48.072;16.286;2023-05-10T02:17:02;5.18;;;2.40;;
11596;SDS011;5854;48.072;16.286;2023-05-10T02:19:33;3.50;;;2.22;;
11596;SDS011;5854;48.072;16.286;2023-05-10T02:22:02;2.78;;;2.58;;
11596;SDS011;5854;48.072;16.286;2023-05-10T02:24:30;4.07;;;2.55;;
11596;SDS011;5854;48.072;16.286;2023-05-10T02:26:58;2.75;;;2.55;;
11596;SDS011;5854;48.072;16.286;2023-05-10T02:29:28;4.63;;;2.53;;
11596;SDS011;5854;48.072;16.286;2023-05-10T02:31:57;4.63;;;2.78;;
11596;SDS011;5854;48.072;16.286;2023-05-10T02:34:26;3.03;;;2.38;;
11596;SDS011;5854;48.072;16.286;2023-05-10T02:36:55;2.42;;;2.22;;
11596;SDS011;5854;48.072;16.286;2023-05-10T02:39:23;3.03;;;2.65;;
11596;SDS011;5854;48.072;16.286;2023-05-10T02:41:51;4.57;;;2.92;;
11596;SDS011;5854;48.072;16.286;2023-05-10T02:44:20;3.25;;;2.33;;
11596;SDS011;5854;48.072;16.286;2023-05-10T02:46:48;2.30;;;2.10;;
11596;SDS011;5854;48.072;16.286;2023-05-10T02:49:16;3.17;;;2.88;;
11596;SDS011;5854;48.072;16.286;2023-05-10T02:51:46;3.28;;;2.97;;
11596;SDS011;5854;48.072;16.286;2023-05-10T02:54:20;3.72;;;3.42;;
11596;SDS011;5854;48.072;16.286;2023-05-10T02:56:51;3.38;;;3.08;;
11596;SDS011;5854;48.072;16.286;2023-05-10T02:59:23;3.08;;;2.88;;
11596;SDS011;5854;48.072;16.286;2023-05-10T03:01:50;3.42;;;3.13;;
11596;SDS011;5854;48.072;16.286;2023-05-10T03:04:17;3.13;;;2.92;;
11596;SDS011;5854;48.072;16.286;2023-05-10T03:06:44;5.90;;;3.00;;
11596;SDS011;5854;48.072;16.286;2023-05-10T03:09:12;3.45;;;3.13;;
11596;SDS011;5854;48.072;16.286;2023-05-10T03:11:49;3.60;;;3.30;;
11596;SDS011;5854;48.072;16.286;2023-05-10T03:14:26;3.08;;;2.67;;
11596;SDS011;5854;48.072;16.286;2023-05-10T03:17:06;3.85;;;2.92;;
11596;SDS011;5854;48.072;16.286;2023-05-10T03:19:40;2.67;;;2.30;;
11596;SDS011;5854;48.072;16.286;2023-05-10T03:22:16;4.88;;;2.47;;
11596;SDS011;5854;48.072;16.286;2023-05-10T03:24:49;2.63;;;2.33;;
11596;SDS011;5854;48.072;16.286;2023-05-10T03:27:21;3.83;;;2.47;;
11596;SDS011;5854;48.072;16.286;2023-05-10T03:29:50;2.67;;;2.47;;
11596;SDS011;5854;48.072;16.286;2023-05-10T03:32:19;2.75;;;2.55;;
11596;SDS011;5854;48.072;16.286;2023-05-10T03:34:46;2.92;;;2.72;;
11596;SDS011;5854;48.072;16.286;2023-05-10T03:37:13;2.72;;;2.53;;
11596;SDS011;5854;48.072;16.286;2023-05-10T03:39:40;3.58;;;3.28;;
11596;SDS011;5854;48.072;16.286;2023-05-10T03:42:07;4.45;;;2.67;;
11596;SDS011;5854;48.072;16.286;2023-05-10T03:44:38;2.90;;;2.70;;
11596;SDS011;5854;48.072;16.286;2023-05-10T03:47:05;5.20;;;2.88;;
11596;SDS011;5854;48.072;16.286;2023-05-10T03:49:32;4.25;;;2.78;;
11596;SDS011;5854;48.072;16.286;2023-05-10T03:51:59;4.75;;;2.75;;
11596;SDS011;5854;48.072;16.286;2023-05-10T03:54:26;5.20;;;4.00;;
11596;SDS011;5854;48.072;16.286;2023-05-10T03:56:53;3.78;;;2.88;;
11596;SDS011;5854;48.072;16.286;2023-05-10T03:59:20;3.13;;;2.92;;
11596;SDS011;5854;48.072;16.286;2023-05-10T04:01:49;4.38;;;2.85;;
11596;SDS011;5854;48.072;16.286;2023-05-10T04:04:16;3.75;;;3.45;;
11596;SDS011;5854;48.072;16.286;2023-05-10T04:06:43;3.60;;;2.72;;
11596;SDS011;5854;48.072;16.286;2023-05-10T04:09:10;3.03;;;2.83;;
11596;SDS011;5854;48.072;16.286;2023-05-10T04:11:37;3.13;;;2.92;;
11596;SDS011;5854;48.072;16.286;2023-05-10T04:14:04;4.65;;;3.05;;
11596;SDS011;5854;48.072;16.286;2023-05-10T04:16:32;3.25;;;2.97;;
11596;SDS011;5854;48.072;16.286;2023-05-10T04:19:00;3.17;;;2.88;;
11596;SDS011;5854;48.072;16.286;2023-05-10T04:21:27;4.15;;;2.80;;
11596;SDS011;5854;48.072;16.286;2023-05-10T04:23:55;5.60;;;2.95;;
11596;SDS011;5854;48.072;16.286;2023-05-10T04:26:22;2.97;;;2.78;;
11596;SDS011;5854;48.072;16.286;2023-05-10T04:28:50;5.70;;;3.88;;
11596;SDS011;5854;48.072;16.286;2023-05-10T04:31:17;4.10;;;3.80;;
11596;SDS011;5854;48.072;16.286;2023-05-10T04:33:44;3.80;;;3.50;;
11596;SDS011;5854;48.072;16.286;2023-05-10T04:38:53;5.18;;;3.63;;
11596;SDS011;5854;48.072;16.286;2023-05-10T04:41:30;3.70;;;3.38;;
11596;SDS011;5854;48.072;16.286;2023-05-10T04:43:57;5.22;;;3.92;;
11596;SDS011;5854;48.072;16.286;2023-05-10T04:46:25;4.38;;;3.50;;
11596;SDS011;5854;48.072;16.286;2023-05-10T04:49:00;6.10;;;3.33;;
11596;SDS011;5854;48.072;16.286;2023-05-10T05:07:17;3.85;;;3.55;;
11596;SDS011;5854;48.072;16.286;2023-05-10T05:09:49;7.90;;;3.92;;
11596;SDS011;5854;48.072;16.286;2023-05-10T05:12:22;3.35;;;3.05;;
11596;SDS011;5854;48.072;16.286;2023-05-10T05:17:17;5.28;;;3.47;;
11596;SDS011;5854;48.072;16.286;2023-05-10T05:25:17;4.57;;;3.28;;
11596;SDS011;5854;48.072;16.286;2023-05-10T05:32:55;7.53;;;4.85;;
11596;SDS011;5854;48.072;16.286;2023-05-10T05:35:23;11.30;;;4.65;;
11596;SDS011;5854;48.072;16.286;2023-05-10T05:38:08;6.43;;;4.07;;
11596;SDS011;5854;48.072;16.286;2023-05-10T05:40:45;3.70;;;3.38;;
11596;SDS011;5854;48.072;16.286;2023-05-10T05:45:49;6.00;;;4.43;;
11596;SDS011;5854;48.072;16.286;2023-05-10T05:51:03;4.55;;;3.92;;
11596;SDS011;5854;48.072;16.286;2023-05-10T06:19:17;3.63;;;3.20;;
11596;SDS011;5854;48.072;16.286;2023-05-10T06:22:06;4.97;;;2.97;;
11596;SDS011;5854;48.072;16.286;2023-05-10T06:24:44;4.20;;;3.00;;
11596;SDS011;5854;48.072;16.286;2023-05-10T06:27:14;3.50;;;3.20;;
11596;SDS011;5854;48.072;16.286;2023-05-10T06:29:53;9.10;;;4.18;;
11596;SDS011;5854;48.072;16.286;2023-05-10T06:35:28;6.47;;;3.97;;
11596;SDS011;5854;48.072;16.286;2023-05-10T06:38:13;6.63;;;6.03;;
11596;SDS011;5854;48.072;16.286;2023-05-10T06:40:43;3.92;;;3.25;;
11596;SDS011;5854;48.072;16.286;2023-05-10T06:43:13;7.15;;;6.15;;
11596;SDS011;5854;48.072;16.286;2023-05-10T08:42:25;2.17;;;1.75;;
11596;SDS011;5854;48.072;16.286;2023-05-10T08:44:58;5.82;;;2.42;;
11596;SDS011;5854;48.072;16.286;2023-05-10T08:47:48;2.58;;;2.38;;
11596;SDS011;5854;48.072;16.286;2023-05-10T08:50:19;2.70;;;2.50;;
11596;SDS011;5854;48.072;16.286;2023-05-10T08:52:55;9.80;;;2.58;;
11596;SDS011;5854;48.072;16.286;2023-05-10T09:00:34;3.95;;;2.42;;
11596;SDS011;5854;48.072;16.286;2023-05-10T09:03:02;1.52;;;1.40;;
11596;SDS011;5854;48.072;16.286;2023-05-10T09:05:31;3.85;;;1.95;;
11596;SDS011;5854;48.072;16.286;2023-05-10T09:07:58;2.50;;;1.63;;
11596;SDS011;5854;48.072;16.286;2023-05-10T09:10:26;7.30;;;1.95;;
11596;SDS011;5854;48.072;16.286;2023-05-10T09:12:56;8.57;;;3.03;;
11596;SDS011;5854;48.072;16.286;2023-05-10T09:15:25;7.35;;;4.85;;
11596;SDS011;5854;48.072;16.286;2023-05-10T09:25:47;6.00;;;1.95;;
11596;SDS011;5854;48.072;16.286;2023-05-10T09:28:51;3.13;;;2.30;;
11596;SDS011;5854;48.072;16.286;2023-05-10T09:31:44;3.00;;;2.20;;
11596;SDS011;5854;48.072;16.286;2023-05-10T09:34:20;2.72;;;1.83;;
11596;SDS011;5854;48.072;16.286;2023-05-10T09:36:56;7.88;;;2.35;;
11596;SDS011;5854;48.072;16.286;2023-05-10T09:39:32;5.00;;;2.65;;
11596;SDS011;5854;48.072;16.286;2023-05-10T09:42:06;2.53;;;1.70;;
11596;SDS011;5854;48.072;16.286;2023-05-10T09:44:36;1.00;;;0.90;;
11596;SDS011;5854;48.072;16.286;2023-05-10T09:47:32;2.58;;;1.33;;
11596;SDS011;5854;48.072;16.286;2023-05-10T09:50:06;3.50;;;1.30;;
11596;SDS011;5854;48.072;16.286;2023-05-10T09:52:45;2.97;;;1.80;;
11596;SDS011;5854;48.072;16.286;2023-05-10T09:55:19;1.77;;;1.02;;
11596;SDS011;5854;48.072;16.286;2023-05-10T10:17:22;3.30;;;0.90;;
11596;SDS011;5854;48.072;16.286;2023-05-10T10:19:54;1.80;;;1.15;;
11596;SDS011;5854;48.072;16.286;2023-05-10T10:22:27;1.67;;;1.15;;
11596;SDS011;5854;48.072;16.286;2023-05-10T10:24:54;0.93;;;0.80;;
11596;SDS011;5854;48.072;16.286;2023-05-10T10:27:23;2.35;;;0.90;;
11596;SDS011;5854;48.072;16.286;2023-05-10T10:29:59;2.67;;;1.00;;
11596;SDS011;5854;48.072;16.286;2023-05-10T10:32:49;3.85;;;0.80;;
11596;SDS011;5854;48.072;16.286;2023-05-10T10:35:34;1.88;;;0.77;;
11596;SDS011;5854;48.072;16.286;2023-05-10T10:38:02;1.42;;;0.70;;
11596;SDS011;5854;48.072;16.286;2023-05-10T10:40:29;0.70;;;0.60;;
11596;SDS011;5854;48.072;16.286;2023-05-10T10:42:58;5.82;;;0.80;;
11596;SDS011;5854;48.072;16.286;2023-05-10T10:46:10;3.85;;;0.88;;
11596;SDS011;5854;48.072;16.286;2023-05-10T10:48:41;6.35;;;0.80;;
11596;SDS011;5854;48.072;16.286;2023-05-10T10:51:13;0.70;;;0.65;;
11596;SDS011;5854;48.072;16.286;2023-05-10T10:53:41;5.60;;;1.00;;
11596;SDS011;5854;48.072;16.286;2023-05-10T10:56:10;5.97;;;0.90;;
11596;SDS011;5854;48.072;16.286;2023-05-10T10:58:40;1.45;;;0.90;;
11596;SDS011;5854;48.072;16.286;2023-05-10T11:01:11;3.00;;;0.90;;
11596;SDS011;5854;48.072;16.286;2023-05-10T11:03:54;1.75;;;0.70;;
11596;SDS011;5854;48.072;16.286;2023-05-10T11:06:46;1.67;;;0.80;;
11596;SDS011;5854;48.072;16.286;2023-05-10T11:09:13;2.40;;;0.90;;
11596;SDS011;5854;48.072;16.286;2023-05-10T11:11:50;2.90;;;0.80;;
11596;SDS011;5854;48.072;16.286;2023-05-10T11:14:21;1.40;;;0.90;;
11596;SDS011;5854;48.072;16.286;2023-05-10T11:16:48;6.80;;;1.00;;
11596;SDS011;5854;48.072;16.286;2023-05-10T11:19:17;3.38;;;0.90;;
11596;SDS011;5854;48.072;16.286;2023-05-10T11:21:46;2.95;;;0.82;;
11596;SDS011;5854;48.072;16.286;2023-05-10T11:24:15;3.88;;;1.08;;
11596;SDS011;5854;48.072;16.286;2023-05-10T11:26:44;1.17;;;0.90;;
11596;SDS011;5854;48.072;16.286;2023-05-10T11:29:12;0.73;;;0.73;;
11596;SDS011;5854;48.072;16.286;2023-05-10T11:31:42;1.67;;;0.70;;
11596;SDS011;5854;48.072;16.286;2023-05-10T11:34:11;1.60;;;0.82;;
11596;SDS011;5854;48.072;16.286;2023-05-10T11:36:50;0.70;;;0.70;;
11596;SDS011;5854;48.072;16.286;2023-05-10T11:39:19;0.98;;;0.88;;
11596;SDS011;5854;48.072;16.286;2023-05-10T11:41:47;2.80;;;1.27;;
11596;SDS011;5854;48.072;16.286;2023-05-10T11:44:15;1.80;;;1.52;;
11596;SDS011;5854;48.072;16.286;2023-05-10T11:46:45;1.20;;;1.00;;
11596;SDS011;5854;48.072;16.286;2023-05-10T11:49:32;0.70;;;0.70;;
11596;SDS011;5854;48.072;16.286;2023-05-10T11:52:05;1.00;;;0.85;;
11596;SDS011;5854;48.072;16.286;2023-05-10T11:54:33;1.77;;;1.00;;
11596;SDS011;5854;48.072;16.286;2023-05-10T11:57:01;3.40;;;1.50;;
11596;SDS011;5854;48.072;16.286;2023-05-10T11:59:28;3.35;;;1.00;;
11596;SDS011;5854;48.072;16.286;2023-05-10T12:01:55;1.30;;;0.70;;
11596;SDS011;5854;48.072;16.286;2023-05-10T12:04:23;1.15;;;1.02;;
11596;SDS011;5854;48.072;16.286;2023-05-10T12:06:51;0.90;;;0.80;;
11596;SDS011;5854;48.072;16.286;2023-05-10T12:14:37;4.97;;;1.00;;
11596;SDS011;5854;48.072;16.286;2023-05-10T12:17:04;0.60;;;0.60;;
11596;SDS011;5854;48.072;16.286;2023-05-10T12:19:36;2.38;;;0.73;;
11596;SDS011;5854;48.072;16.286;2023-05-10T12:22:07;1.73;;;0.65;;
11596;SDS011;5854;48.072;16.286;2023-05-10T12:24:35;1.65;;;1.00;;
11596;SDS011;5854;48.072;16.286;2023-05-10T12:27:09;3.72;;;0.55;;
11596;SDS011;5854;48.072;16.286;2023-05-10T12:29:37;1.67;;;1.17;;
11596;SDS011;5854;48.072;16.286;2023-05-10T12:32:09;1.15;;;0.68;;
11596;SDS011;5854;48.072;16.286;2023-05-10T12:34:36;2.15;;;1.17;;
11596;SDS011;5854;48.072;16.286;2023-05-10T12:37:06;1.33;;;0.63;;
11596;SDS011;5854;48.072;16.286;2023-05-10T12:39:39;1.48;;;0.70;;
11596;SDS011;5854;48.072;16.286;2023-05-10T12:42:07;4.68;;;0.80;;
11596;SDS011;5854;48.072;16.286;2023-05-10T12:44:34;4.35;;;0.60;;
11596;SDS011;5854;48.072;16.286;2023-05-10T12:47:01;0.57;;;0.57;;
11596;SDS011;5854;48.072;16.286;2023-05-10T12:49:28;2.60;;;0.68;;
11596;SDS011;5854;48.072;16.286;2023-05-10T12:51:56;2.95;;;0.73;;
11596;SDS011;5854;48.072;16.286;2023-05-10T12:54:25;0.50;;;0.47;;
11596;SDS011;5854;48.072;16.286;2023-05-10T12:56:52;0.40;;;0.40;;
11596;SDS011;5854;48.072;16.286;2023-05-10T12:59:20;1.58;;;0.50;;
11596;SDS011;5854;48.072;16.286;2023-05-10T13:01:49;3.10;;;0.60;;
11596;SDS011;5854;48.072;16.286;2023-05-10T13:04:16;0.57;;;0.32;;
11596;SDS011;5854;48.072;16.286;2023-05-10T13:06:43;0.85;;;0.52;;
11596;SDS011;5854;48.072;16.286;2023-05-10T13:09:10;4.20;;;0.68;;
11596;SDS011;5854;48.072;16.286;2023-05-10T13:11:39;1.48;;;0.45;;
11596;SDS011;5854;48.072;16.286;2023-05-10T13:14:06;1.00;;;0.60;;
11596;SDS011;5854;48.072;16.286;2023-05-10T13:16:33;2.35;;;0.68;;
11596;SDS011;5854;48.072;16.286;2023-05-10T13:19:00;0.60;;;0.57;;
11596;SDS011;5854;48.072;16.286;2023-05-10T13:21:28;1.05;;;0.98;;
11596;SDS011;5854;48.072;16.286;2023-05-10T13:23:55;2.08;;;0.90;;
11596;SDS011;5854;48.072;16.286;2023-05-10T13:26:22;1.00;;;0.57;;
11596;SDS011;5854;48.072;16.286;2023-05-10T13:28:52;1.80;;;0.60;;
11596;SDS011;5854;48.072;16.286;2023-05-10T13:31:20;0.82;;;0.50;;
11596;SDS011;5854;48.072;16.286;2023-05-10T13:33:47;0.60;;;0.60;;
11596;SDS011;5854;48.072;16.286;2023-05-10T13:36:14;1.80;;;0.77;;
11596;SDS011;5854;48.072;16.286;2023-05-10T13:38:42;3.72;;;0.75;;
11596;SDS011;5854;48.072;16.286;2023-05-10T13:41:09;1.13;;;0.82;;
11596;SDS011;5854;48.072;16.286;2023-05-10T13:59:02;0.95;;;0.60;;
11596;SDS011;5854;48.072;16.286;2023-05-10T14:01:33;3.45;;;0.70;;
11596;SDS011;5854;48.072;16.286;2023-05-10T14:04:03;5.80;;;0.88;;
11596;SDS011;5854;48.072;16.286;2023-05-10T14:11:33;2.90;;;0.82;;
11596;SDS011;5854;48.072;16.286;2023-05-10T14:32:19;0.82;;;0.60;;
11596;SDS011;5854;48.072;16.286;2023-05-10T14:34:47;4.38;;;0.60;;
11596;SDS011;5854;48.072;16.286;2023-05-10T14:37:14;1.77;;;0.85;;
11596;SDS011;5854;48.072;16.286;2023-05-10T14:44:54;3.28;;;0.60;;
11596;SDS011;5854;48.072;16.286;2023-05-10T14:47:27;2.70;;;0.77;;
11596;SDS011;5854;48.072;16.286;2023-05-10T14:49:55;3.80;;;0.90;;
11596;SDS011;5854;48.072;16.286;2023-05-10T14:52:23;1.42;;;0.57;;
11596;SDS011;5854;48.072;16.286;2023-05-10T14:57:26;3.40;;;0.75;;
11596;SDS011;5854;48.072;16.286;2023-05-10T15:00:11;2.88;;;1.05;;
11596;SDS011;5854;48.072;16.286;2023-05-10T15:05:32;1.33;;;0.60;;
11596;SDS011;5854;48.072;16.286;2023-05-10T15:08:02;2.60;;;0.73;;
11596;SDS011;5854;48.072;16.286;2023-05-10T15:10:32;3.15;;;0.82;;
11596;SDS011;5854;48.072;16.286;2023-05-10T15:13:00;2.78;;;0.70;;
11596;SDS011;5854;48.072;16.286;2023-05-10T15:15:27;1.63;;;0.57;;
11596;SDS011;5854;48.072;16.286;2023-05-10T15:17:54;2.95;;;0.60;;
11596;SDS011;5854;48.072;16.286;2023-05-10T15:20:21;1.52;;;0.70;;
11596;SDS011;5854;48.072;16.286;2023-05-10T15:22:51;1.77;;;1.10;;
11596;SDS011;5854;48.072;16.286;2023-05-10T15:25:19;1.67;;;0.60;;
11596;SDS011;5854;48.072;16.286;2023-05-10T15:27:49;0.85;;;0.70;;
11596;SDS011;5854;48.072;16.286;2023-05-10T15:30:17;6.68;;;1.92;;
11596;SDS011;5854;48.072;16.286;2023-05-10T15:32:44;5.88;;;0.80;;
11596;SDS011;5854;48.072;16.286;2023-05-10T15:35:11;2.95;;;0.68;;
11596;SDS011;5854;48.072;16.286;2023-05-10T15:37:38;3.53;;;0.63;;
11596;SDS011;5854;48.072;16.286;2023-05-10T15:40:09;1.00;;;0.70;;
11596;SDS011;5854;48.072;16.286;2023-05-10T15:42:39;1.33;;;0.80;;
11596;SDS011;5854;48.072;16.286;2023-05-10T15:45:07;4.28;;;0.50;;
11596;SDS011;5854;48.072;16.286;2023-05-10T15:47:37;0.60;;;0.57;;
11596;SDS011;5854;48.072;16.286;2023-05-10T15:50:34;0.65;;;0.65;;
11596;SDS011;5854;48.072;16.286;2023-05-10T15:53:05;0.57;;;0.57;;
11596;SDS011;5854;48.072;16.286;2023-05-10T15:55:33;0.70;;;0.70;;
11596;SDS011;5854;48.072;16.286;2023-05-10T15:58:01;0.57;;;0.52;;
11596;SDS011;5854;48.072;16.286;2023-05-10T16:00:28;1.75;;;0.60;;
11596;SDS011;5854;48.072;16.286;2023-05-10T16:02:55;0.70;;;0.70;;
11596;SDS011;5854;48.072;16.286;2023-05-10T16:08:01;2.45;;;0.60;;
11596;SDS011;5854;48.072;16.286;2023-05-10T16:10:30;1.02;;;0.60;;
11596;SDS011;5854;48.072;16.286;2023-05-10T16:12:59;1.30;;;0.60;;
11596;SDS011;5854;48.072;16.286;2023-05-10T16:15:27;2.05;;;0.60;;
11596;SDS011;5854;48.072;16.286;2023-05-10T16:17:55;1.73;;;0.70;;
11596;SDS011;5854;48.072;16.286;2023-05-10T16:20:22;1.10;;;0.80;;
11596;SDS011;5854;48.072;16.286;2023-05-10T16:22:50;2.88;;;0.60;;
11596;SDS011;5854;48.072;16.286;2023-05-10T16:25:17;0.60;;;0.52;;
11596;SDS011;5854;48.072;16.286;2023-05-10T16:27:44;1.08;;;0.70;;
11596;SDS011;5854;48.072;16.286;2023-05-10T16:30:13;3.00;;;0.70;;
11596;SDS011;5854;48.072;16.286;2023-05-10T16:32:40;5.75;;;0.60;;
11596;SDS011;5854;48.072;16.286;2023-05-10T16:35:07;1.55;;;0.90;;
11596;SDS011;5854;48.072;16.286;2023-05-10T16:37:35;1.13;;;0.68;;
11596;SDS011;5854;48.072;16.286;2023-05-10T16:40:03;7.20;;;0.88;;
11596;SDS011;5854;48.072;16.286;2023-05-10T16:42:43;2.35;;;0.70;;
11596;SDS011;5854;48.072;16.286;2023-05-10T16:45:31;4.53;;;0.75;;
11596;SDS011;5854;48.072;16.286;2023-05-10T16:47:58;2.70;;;0.82;;
11596;SDS011;5854;48.072;16.286;2023-05-10T16:53:01;1.10;;;0.70;;
11596;SDS011;5854;48.072;16.286;2023-05-10T16:55:29;5.88;;;0.70;;
11596;SDS011;5854;48.072;16.286;2023-05-10T16:57:59;0.60;;;0.57;;
11596;SDS011;5854;48.072;16.286;2023-05-10T17:00:27;3.08;;;0.50;;
11596;SDS011;5854;48.072;16.286;2023-05-10T17:03:19;0.60;;;0.60;;
11596;SDS011;5854;48.072;16.286;2023-05-10T17:05:46;1.27;;;0.63;;
11596;SDS011;5854;48.072;16.286;2023-05-10T17:08:13;5.45;;;0.80;;
11596;SDS011;5854;48.072;16.286;2023-05-10T17:10:41;1.90;;;1.15;;
11596;SDS011;5854;48.072;16.286;2023-05-10T17:13:09;3.35;;;0.80;;
11596;SDS011;5854;48.072;16.286;2023-05-10T17:15:36;1.15;;;0.73;;
11596;SDS011;5854;48.072;16.286;2023-05-10T17:18:04;3.38;;;0.80;;
11596;SDS011;5854;48.072;16.286;2023-05-10T17:20:33;3.47;;;0.80;;
11596;SDS011;5854;48.072;16.286;2023-05-10T17:23:00;2.40;;;0.98;;
11596;SDS011;5854;48.072;16.286;2023-05-10T17:25:27;2.33;;;0.70;;
11596;SDS011;5854;48.072;16.286;2023-05-10T17:27:54;3.88;;;0.88;;
11596;SDS011;5854;48.072;16.286;2023-05-10T17:30:22;1.13;;;0.70;;
11596;SDS011;5854;48.072;16.286;2023-05-10T17:32:50;1.05;;;0.70;;
11596;SDS011;5854;48.072;16.286;2023-05-10T17:35:18;3.25;;;0.80;;
11596;SDS011;5854;48.072;16.286;2023-05-10T17:37:47;11.65;;;0.93;;
11596;SDS011;5854;48.072;16.286;2023-05-10T17:40:14;1.00;;;0.82;;
11596;SDS011;5854;48.072;16.286;2023-05-10T17:42:42;7.07;;;0.75;;
11596;SDS011;5854;48.072;16.286;2023-05-10T17:45:12;2.17;;;0.70;;
11596;SDS011;5854;48.072;16.286;2023-05-10T17:52:44;2.20;;;0.77;;
11596;SDS011;5854;48.072;16.286;2023-05-10T17:55:23;3.65;;;0.90;;
11596;SDS011;5854;48.072;16.286;2023-05-10T17:57:56;9.07;;;0.80;;
11596;SDS011;5854;48.072;16.286;2023-05-10T18:00:25;1.40;;;0.88;;
11596;SDS011;5854;48.072;16.286;2023-05-10T18:02:53;1.42;;;0.80;;
11596;SDS011;5854;48.072;16.286;2023-05-10T18:05:20;1.88;;;1.00;;
11596;SDS011;5854;48.072;16.286;2023-05-10T18:07:49;1.60;;;0.80;;
11596;SDS011;5854;48.072;16.286;2023-05-10T18:10:16;4.50;;;0.82;;
11596;SDS011;5854;48.072;16.286;2023-05-10T18:12:43;5.10;;;1.17;;
11596;SDS011;5854;48.072;16.286;2023-05-10T18:15:10;2.78;;;1.02;;
11596;SDS011;5854;48.072;16.286;2023-05-10T18:17:37;2.05;;;0.77;;
11596;SDS011;5854;48.072;16.286;2023-05-10T18:20:05;3.95;;;0.98;;
11596;SDS011;5854;48.072;16.286;2023-05-10T18:22:34;2.25;;;0.80;;
11596;SDS011;5854;48.072;16.286;2023-05-10T18:25:02;1.00;;;0.70;;
11596;SDS011;5854;48.072;16.286;2023-05-10T18:27:30;2.55;;;0.82;;
11596;SDS011;5854;48.072;16.286;2023-05-10T18:29:58;1.38;;;0.70;;
11596;SDS011;5854;48.072;16.286;2023-05-10T18:32:25;1.35;;;0.80;;
11596;SDS011;5854;48.072;16.286;2023-05-10T18:34:52;0.98;;;0.73;;
11596;SDS011;5854;48.072;16.286;2023-05-10T18:37:20;0.70;;;0.70;;
11596;SDS011;5854;48.072;16.286;2023-05-10T18:39:47;7.15;;;0.73;;
11596;SDS011;5854;48.072;16.286;2023-05-10T18:42:16;2.30;;;0.98;;
11596;SDS011;5854;48.072;16.286;2023-05-10T18:44:44;3.35;;;0.77;;
11596;SDS011;5854;48.072;16.286;2023-05-10T18:47:11;1.25;;;0.80;;
11596;SDS011;5854;48.072;16.286;2023-05-10T18:49:38;0.77;;;0.77;;
11596;SDS011;5854;48.072;16.286;2023-05-10T18:52:05;2.67;;;1.00;;
11596;SDS011;5854;48.072;16.286;2023-05-10T18:54:33;3.63;;;0.98;;
11596;SDS011;5854;48.072;16.286;2023-05-10T18:57:00;0.82;;;0.80;;
11596;SDS011;5854;48.072;16.286;2023-05-10T18:59:29;1.05;;;0.70;;
11596;SDS011;5854;48.072;16.286;2023-05-10T19:01:56;2.67;;;0.95;;
11596;SDS011;5854;48.072;16.286;2023-05-10T19:04:23;4.53;;;0.90;;
11596;SDS011;5854;48.072;16.286;2023-05-10T19:06:53;2.45;;;0.80;;
11596;SDS011;5854;48.072;16.286;2023-05-10T19:09:22;1.37;;;0.83;;
11596;SDS011;5854;48.072;16.286;2023-05-10T19:14:34;3.15;;;0.90;;
11596;SDS011;5854;48.072;16.286;2023-05-10T19:17:01;1.67;;;0.80;;
11596;SDS011;5854;48.072;16.286;2023-05-10T19:22:05;1.75;;;0.90;;
11596;SDS011;5854;48.072;16.286;2023-05-10T19:24:33;1.02;;;0.80;;
11596;SDS011;5854;48.072;16.286;2023-05-10T19:27:09;3.30;;;0.75;;
11596;SDS011;5854;48.072;16.286;2023-05-10T19:29:39;1.25;;;0.98;;
11596;SDS011;5854;48.072;16.286;2023-05-10T19:32:09;2.42;;;0.80;;
11596;SDS011;5854;48.072;16.286;2023-05-10T20:00:09;1.73;;;1.13;;
11596;SDS011;5854;48.072;16.286;2023-05-10T20:02:41;1.23;;;0.73;;
11596;SDS011;5854;48.072;16.286;2023-05-10T20:07:40;2.00;;;0.90;;
11596;SDS011;5854;48.072;16.286;2023-05-10T20:12:45;1.60;;;0.77;;
11596;SDS011;5854;48.072;16.286;2023-05-10T20:19:32;4.57;;;1.00;;
11596;SDS011;5854;48.072;16.286;2023-05-10T20:26:33;2.92;;;1.33;;
11596;SDS011;5854;48.072;16.286;2023-05-10T20:29:24;7.80;;;0.98;;
11596;SDS011;5854;48.072;16.286;2023-05-10T20:31:56;3.33;;;1.10;;
11596;SDS011;5854;48.072;16.286;2023-05-10T20:34:28;1.63;;;1.27;;
11596;SDS011;5854;48.072;16.286;2023-05-10T20:42:05;2.35;;;0.90;;
11596;SDS011;5854;48.072;16.286;2023-05-10T20:44:52;4.32;;;1.65;;